Time;durP1;ratioP1;P1;durP2;ratioP2;P2;SDS_P1;SDS_P2;PMS_P1;PMS_P2;Temp;Humidity;BMP_temperature;BMP_pressure;BME280_temperature;BME280_humidity;BME280_pressure;Samples;Min_cycle;Max_cycle;Signal;HPM_P1;HPM_P2
2021/04/06 00:01:26;;;;;;;;;;;-1.10;99.90;;;-1.94;88.64;95325.50;10405008;28;2233;-82
2021/04/06 00:06:28;;;;;;;;;;;-1.00;99.90;;;-1.95;87.23;95326.53;10422434;28;2306;-82
2021/04/06 00:11:30;;;;;;;;;;;-0.90;99.90;;;-1.93;88.03;95322.66;10397701;28;2352;-83
2021/04/06 00:16:31;;;;;;;;;;;-0.90;99.90;;;-1.87;87.25;95315.75;10423166;28;2505;-82
2021/04/06 00:21:33;;;;;;;;;;;-0.20;99.90;;;-1.95;86.63;95308.09;10414656;28;2360;-82
2021/04/06 00:26:35;;;;;;;;;;;-1.00;99.90;;;-2.02;87.05;95302.03;10427738;28;2318;-83
2021/04/06 00:31:37;;;;;;;;;;;-1.00;99.90;;;-2.07;85.84;95302.63;10413520;28;2494;-82
2021/04/06 00:36:38;;;;;;;;;;;0.60;99.90;;;-2.20;85.20;95295.56;10417650;28;2797;-82
2021/04/06 00:41:40;;;;;;;;;;;-1.10;99.90;;;-2.27;84.68;95289.53;10422293;28;2320;-80
2021/04/06 00:46:42;;;;;;;;;;;-0.10;99.90;;;-2.33;85.61;95294.81;10420001;28;2129;-80
2021/04/06 00:51:44;;;;;;;;;;;-0.60;99.90;;;-2.37;84.70;95285.69;10422195;28;2407;-81
2021/04/06 00:56:46;;;;;;;;;;;-1.30;99.90;;;-2.38;84.37;95284.88;10412321;28;2717;-83
2021/04/06 01:01:49;;;;;;;;;;;-0.30;99.90;;;-2.45;83.53;95294.59;10431819;28;2276;-82
2021/04/06 01:06:50;;;;;;;;;;;-1.40;99.90;;;-2.38;83.69;95282.25;10431312;28;2616;-82
2021/04/06 01:11:53;;;;;;;;;;;0.10;99.90;;;-2.38;82.68;95282.25;10407312;28;2456;-82
2021/04/06 01:16:55;;;;;;;;;;;-1.40;99.90;;;-2.36;83.35;95288.09;10420892;28;2357;-83
2021/04/06 01:21:57;;;;;;;;;;;0.00;99.90;;;-2.40;83.02;95284.28;10432747;28;2468;-82
2021/04/06 01:26:58;;;;;;;;;;;-0.70;99.90;;;-2.29;84.84;95283.66;10431433;28;2647;-82
2021/04/06 01:32:00;;;;;;;;;;;-1.40;99.90;;;-2.22;84.05;95281.81;10431606;28;2177;-83
2021/04/06 01:37:04;;;;;;;;;;;0.20;99.90;;;-2.28;84.17;95282.66;10416111;28;3282;-84
2021/04/06 01:42:08;;;;;;;;;;;-1.20;99.90;;;-2.40;83.94;95284.28;10414475;28;2341;-83
2021/04/06 01:47:13;;;;;;;;;;;-1.20;99.90;;;-2.43;83.40;95283.88;10448143;28;1250;-83
2021/04/06 01:52:15;;;;;;;;;;;-0.10;99.90;;;-2.49;84.62;95280.22;10424451;28;2559;-83
2021/04/06 01:57:18;;;;;;;;;;;-0.60;99.90;;;-2.49;85.17;95272.34;10424066;28;2439;-80
2021/04/06 02:02:19;;;;;;;;;;;-1.40;99.90;;;-2.56;85.01;95259.19;10455122;28;2589;-83
2021/04/06 02:07:22;;;;;;;;;;;-1.50;99.90;;;-2.59;85.45;95258.78;10437203;28;2437;-83
2021/04/06 02:12:24;;;;;;;;;;;-1.20;99.90;;;-2.68;84.55;95257.38;10439729;28;2368;-82
2021/04/06 02:17:25;;;;;;;;;;;-1.60;99.90;;;-2.68;85.18;95260.00;10442297;28;2161;-83
2021/04/06 02:22:27;;;;;;;;;;;-1.60;99.90;;;-2.66;85.30;95263.25;10413380;28;2466;-83
2021/04/06 02:27:29;;;;;;;;;;;-1.60;99.90;;;-2.74;84.64;95256.34;10410918;28;2723;-85
2021/04/06 02:32:31;;;;;;;;;;;-1.10;99.90;;;-2.67;85.00;95259.81;10432985;28;2392;-83
2021/04/06 02:37:33;;;;;;;;;;;-1.30;99.90;;;-2.69;85.30;95258.38;10432520;28;2534;-84
2021/04/06 02:42:35;;;;;;;;;;;-0.70;99.90;;;-2.79;85.73;95259.63;10450190;28;2336;-83
2021/04/06 02:47:38;;;;;;;;;;;-1.50;99.90;;;-2.80;86.51;95257.16;10435982;28;2416;-84
2021/04/06 02:52:40;;;;;;;;;;;-1.00;99.90;;;-2.91;86.89;95252.53;10440329;28;2440;-84
2021/04/06 02:57:42;;;;;;;;;;;-1.80;99.90;;;-2.90;86.82;95252.34;10427542;28;2413;-83
2021/04/06 03:02:44;;;;;;;;;;;-1.70;99.90;;;-2.97;87.14;95256.78;10422733;28;2172;-83
2021/04/06 03:07:46;;;;;;;;;;;-0.70;99.90;;;-2.96;87.06;95250.50;10408576;28;2416;-82
2021/04/06 03:12:48;;;;;;;;;;;0.00;99.90;;;-2.85;86.58;95247.28;10416848;28;2325;-83
2021/04/06 03:17:52;;;;;;;;;;;-1.00;99.90;;;-2.98;86.48;95255.16;10407788;28;2476;-83
2021/04/06 03:22:54;;;;;;;;;;;-1.90;99.90;;;-2.88;86.59;95249.50;10409013;28;2486;-83
2021/04/06 03:27:55;;;;;;;;;;;-1.80;99.90;;;-2.77;86.56;95252.31;10429793;28;2507;-82
2021/04/06 03:32:57;;;;;;;;;;;-1.80;99.90;;;-2.70;85.99;95251.50;10439633;28;2420;-82
2021/04/06 03:37:59;;;;;;;;;;;0.20;99.90;;;-2.58;85.48;95244.63;10395710;28;2378;-83
2021/04/06 03:43:03;;;;;;;;;;;-1.70;99.90;;;-2.67;85.46;95243.19;10415667;28;2416;-83
2021/04/06 03:48:05;;;;;;;;;;;-1.70;99.90;;;-2.74;85.12;95240.56;10405907;28;2459;-83
2021/04/06 03:53:07;;;;;;;;;;;-1.70;99.90;;;-2.78;84.92;95234.94;10407603;28;2542;-84
2021/04/06 03:58:12;;;;;;;;;;;-1.30;99.90;;;-2.82;85.12;95223.19;10414970;28;2536;-82
2021/04/06 04:03:14;;;;;;;;;;;-0.90;99.90;;;-2.89;85.25;95235.53;10417558;28;2539;-84
2021/04/06 04:08:16;;;;;;;;;;;-1.80;99.90;;;-2.79;85.31;95233.31;10417440;28;2465;-83
2021/04/06 04:13:18;;;;;;;;;;;-1.60;99.90;;;-2.85;84.39;95231.50;10424994;28;2153;-82
2021/04/06 04:18:19;;;;;;;;;;;-1.80;99.90;;;-2.95;84.87;95232.91;10408352;28;2445;-83
2021/04/06 04:23:21;;;;;;;;;;;-0.90;99.90;;;-3.04;85.36;95230.50;10421796;28;2479;-81
2021/04/06 04:28:23;;;;;;;;;;;-2.00;99.90;;;-3.10;84.88;95226.03;10404395;28;2550;-81
2021/04/06 04:33:25;;;;;;;;;;;-1.10;99.90;;;-3.13;85.47;95226.44;10410015;28;2570;-83
2021/04/06 04:38:27;;;;;;;;;;;-1.80;99.90;;;-3.17;85.32;95229.69;10400758;28;2865;-84
2021/04/06 04:43:29;;;;;;;;;;;-2.10;99.90;;;-3.12;85.30;95219.34;10428059;28;2586;-82
2021/04/06 04:48:30;;;;;;;;;;;-1.60;99.90;;;-3.21;84.94;95225.81;10422554;28;2470;-82
2021/04/06 04:53:32;;;;;;;;;;;-0.60;99.90;;;-3.19;85.29;95213.28;10418162;28;2606;-82
2021/04/06 04:58:34;;;;;;;;;;;-2.00;99.90;;;-3.11;85.25;95228.88;10430039;28;2439;-83
2021/04/06 05:03:36;;;;;;;;;;;-2.10;99.90;;;-2.98;84.86;95221.00;10459114;28;2440;-80
2021/04/06 05:08:39;;;;;;;;;;;-1.90;99.90;;;-2.82;83.78;95220.56;10443810;28;1891;-84
2021/04/06 05:13:40;;;;;;;;;;;-1.90;99.90;;;-2.70;82.72;95222.56;10459826;28;2464;-83
2021/04/06 05:18:42;;;;;;;;;;;-0.30;99.90;;;-2.55;81.35;95220.50;10425899;28;2137;-82
2021/04/06 05:23:44;;;;;;;;;;;-0.90;99.90;;;-2.40;81.61;95221.09;10427417;28;2575;-82
2021/04/06 05:28:46;;;;;;;;;;;-1.50;99.90;;;-2.27;80.20;95228.97;10410115;28;1900;-83
2021/04/06 05:33:48;;;;;;;;;;;-1.30;99.90;;;-2.06;79.86;95224.44;10429648;28;2495;-82
2021/04/06 05:38:50;;;;;;;;;;;0.10;99.90;;;-1.84;78.63;95224.97;10412439;28;2455;-83
2021/04/06 05:43:51;;;;;;;;;;;-1.00;99.90;;;-1.69;77.72;95223.66;10428031;28;2310;-83
2021/04/06 05:48:53;;;;;;;;;;;-0.80;99.90;;;-1.72;77.18;95223.28;10409776;28;2398;-84
2021/04/06 05:53:55;;;;;;;;;;;-0.70;99.90;;;-1.71;77.37;95231.00;10414195;28;2598;-85
2021/04/06 05:58:59;;;;;;;;;;;1.80;99.90;;;-1.68;78.20;95235.00;10419002;28;2002;-85
2021/04/06 06:04:04;;;;;;;;;;;0.00;99.90;;;-1.51;77.26;95240.63;10422445;28;1730;-86
2021/04/06 06:09:10;;;;;;;;;;;-0.70;99.90;;;-1.43;76.93;95227.97;10429190;28;1882;-83
2021/04/06 06:14:13;;;;;;;;;;;0.50;99.90;;;-1.26;76.37;95233.56;10442743;28;2215;-84
2021/04/06 06:19:16;;;;;;;;;;;1.20;99.90;;;-1.18;76.41;95222.75;10435558;28;2467;-84
2021/04/06 06:24:18;;;;;;;;;;;-0.10;99.90;;;-1.44;75.30;95230.84;10409542;28;1881;-83
2021/04/06 06:29:23;;;;;;;;;;;1.20;99.90;;;-1.24;75.66;95235.97;10416809;28;2431;-83
2021/04/06 06:34:26;;;;;;;;;;;-0.30;99.90;;;-1.16;75.95;95228.63;10402464;28;1903;-84
2021/04/06 06:39:28;;;;;;;;;;;-0.30;99.90;;;-0.73;74.56;95216.53;10404051;28;2476;-82
2021/04/06 06:44:34;;;;;;;;;;;1.30;99.90;;;-0.60;73.10;95211.13;10390637;28;2328;-83
2021/04/06 06:49:37;;;;;;;;;;;0.30;99.90;;;-0.87;71.29;95207.91;10389965;28;2278;-83
2021/04/06 06:54:42;;;;;;;;;;;2.30;99.90;;;-0.59;73.10;95210.91;10420706;28;2259;-82
2021/04/06 06:59:44;;;;;;;;;;;-0.90;99.90;;;-0.58;70.56;95199.31;10416011;28;1999;-81
2021/04/06 07:04:46;;;;;;;;;;;2.30;99.90;;;-0.39;71.34;95197.50;10436110;28;2032;-83
2021/04/06 07:09:52;;;;;;;;;;;0.50;99.90;;;-0.36;68.77;95196.25;10413615;28;2304;-83
2021/04/06 07:14:57;;;;;;;;;;;0.50;99.90;;;-0.10;66.18;95198.59;10396052;28;2159;-81
2021/04/06 07:20:01;;;;;;;;;;;0.80;99.90;;;0.54;67.11;95191.91;10396480;28;2486;-82
2021/04/06 07:25:05;;;;;;;;;;;1.60;99.90;;;0.04;66.08;95198.44;10392961;28;1551;-81
2021/04/06 07:30:08;;;;;;;;;;;1.50;99.90;;;0.05;67.92;95211.44;10391343;28;2324;-83
2021/04/06 07:35:12;;;;;;;;;;;1.10;99.90;;;-0.10;65.22;95211.81;10419916;28;1881;-81
2021/04/06 07:40:14;;;;;;;;;;;1.00;99.90;;;-0.24;66.65;95214.84;10415415;28;1823;-85
2021/04/06 07:45:16;;;;;;;;;;;0.60;99.90;;;0.04;67.73;95223.03;10413946;28;1958;-82
2021/04/06 07:50:19;;;;;;;;;;;2.00;99.90;;;0.21;67.53;95225.91;10409119;28;2309;-84
2021/04/06 07:55:22;;;;;;;;;;;2.30;99.90;;;-0.27;67.13;95219.50;10426142;28;2225;-85
2021/04/06 08:00:24;;;;;;;;;;;0.70;99.90;;;-0.10;69.10;95227.66;10405561;28;2320;-84
2021/04/06 08:05:26;;;;;;;;;;;2.60;99.90;;;-0.19;68.57;95229.00;10413276;28;2330;-84
2021/04/06 08:10:30;;;;;;;;;;;0.50;99.90;;;-0.14;69.57;95237.06;10407061;28;2455;-82
2021/04/06 08:15:34;;;;;;;;;;;0.60;99.90;;;0.06;70.38;95241.31;10411867;28;2560;-84
2021/04/06 08:20:45;;;;;;;;;;;0.60;99.90;;;-0.02;69.39;95245.06;10417426;28;2415;-83
2021/04/06 08:25:47;;;;;;;;;;;0.80;99.90;;;-0.05;68.96;95233.09;10405487;28;2148;-85
2021/04/06 08:30:49;;;;;;;;;;;0.80;99.90;;;0.06;68.25;95243.94;10403890;28;2201;-83
2021/04/06 08:35:52;;;;;;;;;;;0.90;99.90;;;0.07;70.79;95245.59;10405664;28;1762;-84
2021/04/06 08:40:54;;;;;;;;;;;0.80;99.90;;;0.15;69.48;95245.28;10419344;28;1798;-83
2021/04/06 08:46:00;;;;;;;;;;;2.10;99.90;;;0.25;67.93;95240.25;10402600;28;2087;-86
2021/04/06 08:51:14;;;;;;;;;;;3.10;99.90;;;1.30;66.59;95227.38;10417720;28;2609;-86
2021/04/06 08:56:16;;;;;;;;;;;1.60;99.90;;;0.94;64.80;95227.53;10421292;28;2205;-83
2021/04/06 09:01:19;;;;;;;;;;;1.90;99.90;;;1.37;65.31;95221.16;10409513;28;2066;-85
2021/04/06 09:06:21;;;;;;;;;;;3.40;99.90;;;2.20;63.65;95215.56;10422552;28;2430;-85
2021/04/06 09:11:23;;;;;;;;;;;4.90;99.90;;;2.28;61.08;95214.38;10436243;28;1902;-84
2021/04/06 09:16:26;;;;;;;;;;;3.10;99.90;;;2.04;63.74;95217.13;10443041;28;2367;-84
2021/04/06 09:21:28;;;;;;;;;;;2.70;99.90;;;2.20;65.62;95217.41;10435238;28;2675;-85
2021/04/06 09:26:31;;;;;;;;;;;2.80;99.90;;;2.30;65.39;95215.78;10399691;28;2448;-86
2021/04/06 09:31:33;;;;;;;;;;;5.00;99.90;;;1.78;62.34;95223.72;10435733;28;1918;-84
2021/04/06 09:36:35;;;;;;;;;;;4.20;99.90;;;1.82;64.01;95218.75;10424496;28;1654;-83
2021/04/06 09:41:37;;;;;;;;;;;2.50;99.90;;;2.11;64.20;95209.03;10417464;28;2008;-81
2021/04/06 09:46:39;;;;;;;;;;;2.70;99.90;;;2.62;62.38;95208.16;10455478;28;2303;-86
2021/04/06 09:51:41;;;;;;;;;;;3.30;99.90;;;2.89;60.11;95186.34;10452280;28;2423;-84
2021/04/06 09:56:44;;;;;;;;;;;3.60;99.90;;;3.29;60.73;95182.72;10453268;28;1635;-85
2021/04/06 10:01:46;;;;;;;;;;;5.00;99.90;;;3.12;59.33;95186.22;10448097;28;1713;-83
2021/04/06 10:06:48;;;;;;;;;;;5.40;99.90;;;3.92;57.65;95186.81;10422930;28;2379;-84
2021/04/06 10:11:50;;;;;;;;;;;4.20;99.90;;;3.82;59.11;95168.06;10407477;28;1903;-84
2021/04/06 10:16:51;;;;;;;;;;;6.10;99.90;;;3.98;56.05;95170.69;10413161;28;2446;-84
2021/04/06 10:21:53;;;;;;;;;;;4.70;99.90;;;4.13;60.73;95172.72;10415411;28;2318;-84
2021/04/06 10:26:55;;;;;;;;;;;4.70;99.90;;;3.48;56.94;95170.81;10431969;28;2383;-86
2021/04/06 10:31:59;;;;;;;;;;;4.70;99.90;;;3.85;58.27;95162.28;10436707;28;2248;-83
2021/04/06 10:37:03;;;;;;;;;;;4.40;99.90;;;3.96;57.68;95164.03;10428566;28;1840;-85
2021/04/06 10:42:12;;;;;;;;;;;6.40;99.90;;;3.63;58.77;95170.22;10416411;28;2366;-83
2021/04/06 10:47:19;;;;;;;;;;;4.40;99.90;;;2.59;59.16;95166.16;10410676;28;2572;-84
2021/04/06 10:52:21;;;;;;;;;;;4.30;99.90;;;2.34;63.00;95149.78;10430681;28;2375;-85
2021/04/06 10:57:25;;;;;;;;;;;4.70;99.90;;;2.40;60.80;95151.50;10412019;28;2208;-82
2021/04/06 11:02:44;;;;;;;;;;;3.20;99.90;;;2.89;59.90;95138.56;10415016;28;2391;-83
2021/04/06 11:07:47;;;;;;;;;;;4.40;99.90;;;2.37;63.80;95149.34;10418540;28;2407;-84
2021/04/06 11:12:49;;;;;;;;;;;4.50;99.90;;;1.65;66.65;95141.81;10420559;28;2380;-82
2021/04/06 11:17:51;;;;;;;;;;;2.80;99.90;;;2.54;63.82;95120.97;10407066;28;2238;-84
2021/04/06 11:22:53;;;;;;;;;;;4.10;99.90;;;2.83;62.55;95107.66;10415932;28;2417;-84
2021/04/06 11:27:58;;;;;;;;;;;3.60;99.90;;;3.73;61.02;95104.69;10412578;28;2365;-80
2021/04/06 11:33:05;;;;;;;;;;;4.20;99.90;;;3.74;57.09;95087.69;10427975;28;1924;-81
2021/04/06 11:38:07;;;;;;;;;;;4.60;99.90;;;4.45;59.48;95081.53;10416573;28;2001;-85
2021/04/06 11:43:09;;;;;;;;;;;4.80;99.90;;;3.34;59.59;95093.28;10443524;28;2332;-84
2021/04/06 11:48:11;;;;;;;;;;;4.60;99.90;;;4.05;58.87;95075.56;10443849;28;2267;-81
2021/04/06 11:53:12;;;;;;;;;;;4.60;99.90;;;3.19;59.52;95074.50;10429879;28;2344;-85
2021/04/06 11:58:14;;;;;;;;;;;4.60;99.90;;;2.33;59.43;95085.34;10414907;28;2238;-85
2021/04/06 12:03:17;;;;;;;;;;;3.80;99.90;;;0.70;72.45;95104.97;10455173;28;2283;-83
2021/04/06 12:08:18;;;;;;;;;;;3.70;99.90;;;0.39;74.95;95100.81;10430045;28;2257;-83
2021/04/06 12:13:20;;;;;;;;;;;1.60;99.90;;;0.14;78.43;95090.38;10425320;28;2374;-84
2021/04/06 12:18:22;;;;;;;;;;;2.30;99.90;;;-0.10;81.34;95100.84;10401206;28;2226;-83
2021/04/06 12:23:24;;;;;;;;;;;1.00;99.90;;;-0.45;84.05;95113.88;10435278;28;2228;-81
2021/04/06 12:28:26;;;;;;;;;;;1.80;99.90;;;-0.64;87.84;95120.19;10418526;28;1753;-85
2021/04/06 12:33:28;;;;;;;;;;;0.40;99.90;;;-1.22;89.52;95108.16;10442241;28;1979;-80
2021/04/06 12:38:30;;;;;;;;;;;0.00;99.90;;;-1.04;89.64;95098.69;10430762;28;2422;-82
2021/04/06 12:43:32;;;;;;;;;;;-0.20;99.90;;;-0.37;88.06;95079.28;10427602;28;2311;-81
2021/04/06 12:48:34;;;;;;;;;;;0.20;99.90;;;-0.04;83.83;95073.53;10423101;28;2288;-84
2021/04/06 12:53:37;;;;;;;;;;;1.90;99.90;;;0.43;82.92;95063.09;10418970;28;2688;-81
2021/04/06 12:58:38;;;;;;;;;;;1.30;99.90;;;0.69;82.03;95061.84;10418168;28;2370;-80
2021/04/06 13:03:46;;;;;;;;;;;1.50;99.90;;;0.65;81.18;95059.91;10422382;28;2237;-81
2021/04/06 13:08:48;;;;;;;;;;;1.60;99.90;;;0.53;80.72;95044.84;10452718;28;1937;-83
2021/04/06 13:13:50;;;;;;;;;;;1.50;99.90;;;0.91;80.59;95037.50;10443071;28;1894;-85
2021/04/06 13:18:52;;;;;;;;;;;1.60;99.90;;;1.43;76.39;95022.44;10452475;28;1200;-85
2021/04/06 13:23:54;;;;;;;;;;;2.10;99.90;;;1.13;75.19;95013.84;10472537;28;1809;-85
2021/04/06 13:28:56;;;;;;;;;;;2.20;99.90;;;1.36;75.20;95024.41;10440148;28;1875;-86
2021/04/06 13:33:58;;;;;;;;;;;3.90;99.90;;;1.85;74.10;95001.78;10412794;28;1894;-87
2021/04/06 13:39:01;;;;;;;;;;;2.50;99.90;;;2.20;73.10;94997.31;10416400;28;1754;-87
2021/04/06 13:44:05;;;;;;;;;;;2.90;99.90;;;1.77;70.86;94980.16;10417515;28;2161;-86
2021/04/06 13:49:07;;;;;;;;;;;2.80;99.90;;;1.52;70.98;94986.56;10416117;28;2384;-86
2021/04/06 13:54:09;;;;;;;;;;;2.50;99.90;;;2.07;69.45;94988.63;10420371;28;2272;-84
2021/04/06 13:59:11;;;;;;;;;;;4.30;99.90;;;2.47;70.08;94982.38;10433747;28;2325;-83
2021/04/06 14:04:13;;;;;;;;;;;4.60;99.90;;;2.17;69.71;94978.22;10409748;28;2277;-83
2021/04/06 14:09:15;;;;;;;;;;;3.20;99.90;;;2.27;68.62;94988.16;10433627;28;2236;-81
2021/04/06 14:14:17;;;;;;;;;;;3.10;99.90;;;2.77;67.76;94983.88;10438793;28;2328;-83
2021/04/06 14:19:19;;;;;;;;;;;3.40;99.90;;;3.09;65.70;94962.81;10411587;28;2394;-83
2021/04/06 14:24:20;;;;;;;;;;;3.90;99.90;;;2.81;66.49;94961.13;10429103;28;2340;-82
2021/04/06 14:29:22;;;;;;;;;;;3.90;99.90;;;2.60;68.71;94966.13;10392880;28;2234;-83
2021/04/06 14:34:24;;;;;;;;;;;3.60;99.90;;;2.67;65.60;94974.75;10411926;28;2393;-83
2021/04/06 14:39:26;;;;;;;;;;;3.60;99.90;;;2.85;60.78;94967.53;10436727;28;2352;-81
2021/04/06 14:44:28;;;;;;;;;;;3.70;99.90;;;2.35;63.19;94960.44;10449715;28;2100;-80
2021/04/06 14:49:30;;;;;;;;;;;3.40;99.90;;;2.32;62.93;94963.59;10444675;28;1732;-82
2021/04/06 14:54:32;;;;;;;;;;;3.30;99.90;;;2.25;64.17;94986.81;10424090;28;2423;-82
2021/04/06 14:59:34;;;;;;;;;;;3.20;99.90;;;2.23;66.05;94981.75;10425339;28;2293;-82
2021/04/06 15:04:36;;;;;;;;;;;3.10;99.90;;;1.90;65.71;94978.00;10429018;28;2396;-82
2021/04/06 15:09:38;;;;;;;;;;;3.00;99.90;;;1.50;66.80;94983.38;10424292;28;1962;-85
2021/04/06 15:14:40;;;;;;;;;;;2.70;99.90;;;1.93;67.62;94965.34;10411590;28;2290;-81
2021/04/06 15:19:42;;;;;;;;;;;2.80;99.90;;;1.87;68.58;94970.53;10436415;28;2313;-83
2021/04/06 15:24:45;;;;;;;;;;;2.80;99.90;;;1.92;67.26;94972.47;10404998;28;2368;-83
2021/04/06 15:29:47;;;;;;;;;;;3.40;99.90;;;2.00;65.60;94972.09;10432804;28;2403;-84
2021/04/06 15:34:50;;;;;;;;;;;3.40;99.90;;;2.06;64.50;94980.94;10426117;28;2334;-81
2021/04/06 15:39:55;;;;;;;;;;;3.00;99.90;;;1.90;65.03;94982.50;10401681;28;2192;-85
2021/04/06 15:44:57;;;;;;;;;;;2.80;99.90;;;1.29;65.44;94971.59;10403097;28;2265;-84
2021/04/06 15:49:59;;;;;;;;;;;2.50;99.90;;;1.23;64.50;94966.44;10416722;28;1907;-83
2021/04/06 15:55:01;;;;;;;;;;;3.60;99.90;;;1.12;65.97;94961.97;10439865;28;1886;-83
2021/04/06 16:00:05;;;;;;;;;;;3.40;99.90;;;1.04;65.70;94952.56;10427151;28;2263;-85
2021/04/06 16:05:09;;;;;;;;;;;2.10;99.90;;;1.15;66.05;94953.56;10418046;28;2553;-87
2021/04/06 16:10:11;;;;;;;;;;;2.10;99.90;;;1.03;65.61;94957.03;10432941;28;2079;-85
2021/04/06 16:15:16;;;;;;;;;;;3.60;99.90;;;0.95;66.39;94941.50;10439368;28;1841;-85
2021/04/06 16:25:46;;;;;;;;;;;2.00;99.90;;;1.08;63.95;94946.56;10415623;28;2284;-85
2021/04/06 16:30:51;;;;;;;;;;;3.20;99.90;;;1.07;66.47;94942.28;10436958;28;2201;-87
2021/04/06 16:35:53;;;;;;;;;;;3.80;99.90;;;1.05;65.41;94943.56;10418870;28;1698;-83
2021/04/06 16:40:55;;;;;;;;;;;2.10;99.90;;;1.38;66.39;94947.38;10429007;28;2383;-79
2021/04/06 16:45:58;;;;;;;;;;;2.90;99.90;;;1.58;66.00;94953.84;10422957;28;2573;-79
2021/04/06 16:51:00;;;;;;;;;;;2.50;99.90;;;1.44;65.30;94939.28;10425850;28;2419;-79
2021/04/06 16:56:04;;;;;;;;;;;2.70;99.90;;;1.53;66.56;94943.19;10421034;28;1882;-77
2021/04/06 17:01:06;;;;;;;;;;;2.50;99.90;;;1.15;68.80;94940.34;10412797;28;2308;-78
2021/04/06 17:06:10;;;;;;;;;;;3.60;99.90;;;0.72;68.66;94934.44;10389691;28;2296;-78
2021/04/06 17:11:12;;;;;;;;;;;2.00;99.90;;;0.67;71.11;94930.88;10409218;28;2311;-76
2021/04/06 17:16:14;;;;;;;;;;;1.80;99.90;;;0.64;71.42;94937.44;10413085;28;2414;-77
2021/04/06 17:21:16;;;;;;;;;;;1.70;99.90;;;0.64;72.48;94957.81;10419256;28;2339;-75
2021/04/06 17:26:17;;;;;;;;;;;1.60;99.90;;;0.60;72.27;94964.56;10425053;28;2302;-75
2021/04/06 17:31:19;;;;;;;;;;;1.70;99.90;;;0.17;73.61;95000.88;10423352;28;2382;-77
2021/04/06 17:36:21;;;;;;;;;;;1.50;99.90;;;-0.84;83.21;95030.69;10439809;28;2329;-77
2021/04/06 17:41:23;;;;;;;;;;;1.10;99.90;;;-1.02;88.77;95020.13;10412844;28;2489;-78
2021/04/06 17:46:25;;;;;;;;;;;0.10;99.90;;;-0.99;88.46;95011.78;10438404;28;2427;-79
2021/04/06 17:51:28;;;;;;;;;;;0.00;99.90;;;-0.99;87.53;95004.66;10457809;28;2208;-80
2021/04/06 17:56:30;;;;;;;;;;;0.00;99.90;;;-1.02;87.89;95006.94;10458574;28;2348;-81
2021/04/06 18:01:32;;;;;;;;;;;0.00;99.90;;;-1.05;87.14;95005.53;10442086;28;2153;-81
2021/04/06 18:06:34;;;;;;;;;;;0.00;99.90;;;-1.10;87.27;95011.47;10426118;28;2303;-76
2021/04/06 18:11:36;;;;;;;;;;;1.70;99.90;;;-1.23;86.97;95016.88;10429193;28;2288;-79
2021/04/06 18:16:38;;;;;;;;;;;0.40;99.90;;;-1.31;86.47;95025.09;10422746;28;2114;-79
2021/04/06 18:21:40;;;;;;;;;;;-0.10;99.90;;;-1.33;87.08;95028.97;10420131;28;2271;-76
2021/04/06 18:26:42;;;;;;;;;;;-0.10;99.90;;;-1.29;87.11;95027.50;10415094;28;2331;-79
2021/04/06 18:31:44;;;;;;;;;;;-0.20;99.90;;;-1.32;85.14;95047.22;10408383;28;2288;-77
2021/04/06 18:36:46;;;;;;;;;;;-0.10;99.90;;;-1.16;85.05;95053.75;10416457;28;2363;-77
2021/04/06 18:41:47;;;;;;;;;;;1.40;99.90;;;-1.20;83.33;95055.22;10390345;28;2409;-76
2021/04/06 18:46:50;;;;;;;;;;;-0.10;99.90;;;-1.26;82.28;95064.81;10421267;28;2370;-79
2021/04/06 18:51:52;;;;;;;;;;;-0.10;99.90;;;-1.26;81.91;95075.34;10438446;28;2339;-80
2021/04/06 18:56:55;;;;;;;;;;;-0.10;99.90;;;-1.23;82.10;95074.91;10454568;28;2209;-80
2021/04/06 19:01:56;;;;;;;;;;;1.10;99.90;;;-1.36;83.62;95082.94;10441791;28;2707;-79
2021/04/06 19:06:58;;;;;;;;;;;-0.20;99.90;;;-1.38;83.59;95079.72;10424060;28;2244;-76
2021/04/06 19:12:01;;;;;;;;;;;0.70;99.90;;;-1.45;83.03;95078.97;10410910;28;2268;-77
2021/04/06 19:17:04;;;;;;;;;;;-0.30;99.90;;;-1.47;83.69;95083.63;10381156;28;2365;-76
2021/04/06 19:22:06;;;;;;;;;;;0.60;99.90;;;-1.52;83.54;95080.84;10407132;28;2208;-75
2021/04/06 19:27:08;;;;;;;;;;;-0.40;99.90;;;-1.59;84.49;95077.44;10406994;28;3103;-76
2021/04/06 19:32:10;;;;;;;;;;;-0.50;99.90;;;-1.56;84.63;95075.19;10384102;28;1980;-77
2021/04/06 19:37:13;;;;;;;;;;;-0.40;99.90;;;-1.68;84.28;95087.44;10379907;28;1741;-76
2021/04/06 19:42:15;;;;;;;;;;;-0.50;99.90;;;-1.60;84.67;95078.47;10390496;28;2696;-77
2021/04/06 19:47:18;;;;;;;;;;;-0.50;99.90;;;-1.39;83.47;95081.53;10407401;28;3188;-76
2021/04/06 19:52:20;;;;;;;;;;;-0.40;99.90;;;-1.25;82.55;95081.44;10393956;28;2813;-75
2021/04/06 19:57:22;;;;;;;;;;;-0.30;99.90;;;-1.35;82.34;95071.34;10379968;28;2606;-77
2021/04/06 20:02:24;;;;;;;;;;;-0.30;99.90;;;-1.34;81.72;95064.25;10414803;28;1792;-77
2021/04/06 20:07:26;;;;;;;;;;;0.10;99.90;;;-1.21;81.46;95066.75;10417468;28;1588;-77
2021/04/06 20:12:28;;;;;;;;;;;-0.20;99.90;;;-1.00;80.45;95063.75;10404105;28;1958;-74
2021/04/06 20:17:37;;;;;;;;;;;-0.10;99.90;;;-0.91;80.36;95072.16;10405929;28;2042;-76
2021/04/06 20:22:39;;;;;;;;;;;0.00;99.90;;;-0.88;80.30;95069.09;10385246;28;1683;-76
2021/04/06 20:27:41;;;;;;;;;;;0.10;99.90;;;-0.96;80.25;95058.81;10408106;28;1284;-78
2021/04/06 20:32:43;;;;;;;;;;;0.80;99.90;;;-1.14;80.50;95057.78;10404477;28;1942;-78
2021/04/06 20:37:45;;;;;;;;;;;0.00;99.90;;;-1.16;80.64;95065.09;10420401;28;1268;-75
2021/04/06 20:42:47;;;;;;;;;;;-0.10;99.90;;;-1.05;80.46;95062.78;10406897;28;2532;-77
2021/04/06 20:47:49;;;;;;;;;;;-0.10;99.90;;;-0.85;80.15;95066.00;10399813;28;1292;-80
2021/04/06 20:52:54;;;;;;;;;;;0.00;99.90;;;-0.82;79.16;95065.59;10408682;28;1981;-77
2021/04/06 20:57:56;;;;;;;;;;;0.10;99.90;;;-0.74;79.79;95065.28;10418086;28;1636;-78
2021/04/06 21:02:58;;;;;;;;;;;0.30;99.90;;;-0.42;79.89;95067.75;10416889;28;2359;-76
2021/04/06 21:08:00;;;;;;;;;;;0.30;99.90;;;-0.02;79.36;95060.91;10418821;28;2200;-76
2021/04/06 21:13:05;;;;;;;;;;;1.30;99.90;;;0.38;75.77;95055.06;10441894;28;2299;-78
2021/04/06 21:18:07;;;;;;;;;;;1.00;99.90;;;0.18;75.87;95059.81;10454796;28;2283;-77
2021/04/06 21:23:09;;;;;;;;;;;1.10;99.90;;;0.26;76.82;95062.16;10430973;28;2379;-77
2021/04/06 21:28:11;;;;;;;;;;;1.00;99.90;;;0.09;75.87;95056.69;10443163;28;1970;-75
2021/04/06 21:33:13;;;;;;;;;;;1.40;99.90;;;0.09;76.35;95054.06;10418877;28;2335;-74
2021/04/06 21:38:15;;;;;;;;;;;1.20;99.90;;;0.34;76.54;95053.09;10414699;28;2355;-75
2021/04/06 21:43:16;;;;;;;;;;;1.20;99.90;;;0.21;75.17;95059.38;10413253;28;2469;-74
2021/04/06 21:48:18;;;;;;;;;;;1.50;99.90;;;-0.01;75.41;95059.06;10411362;28;2350;-75
2021/04/06 21:53:20;;;;;;;;;;;2.50;99.90;;;0.09;75.76;95064.63;10412901;28;2268;-76
2021/04/06 21:58:22;;;;;;;;;;;1.60;99.90;;;-0.07;76.28;95063.41;10410156;28;2394;-78
2021/04/06 22:03:24;;;;;;;;;;;1.10;99.90;;;0.01;75.61;95064.16;10409586;28;2280;-76
2021/04/06 22:08:26;;;;;;;;;;;0.80;99.90;;;-0.49;78.11;95069.66;10397497;28;2288;-75
2021/04/06 22:13:28;;;;;;;;;;;0.70;99.90;;;-0.42;77.62;95070.41;10413902;28;2269;-76
2021/04/06 22:18:29;;;;;;;;;;;1.00;99.90;;;-0.29;78.72;95076.31;10410623;28;2311;-76
2021/04/06 22:23:31;;;;;;;;;;;1.30;99.90;;;-0.49;77.98;95074.94;10410553;28;2261;-75
2021/04/06 22:28:33;;;;;;;;;;;0.50;99.90;;;-0.60;80.80;95074.66;10411044;28;2413;-74
2021/04/06 22:33:35;;;;;;;;;;;0.30;99.90;;;-0.57;81.05;95063.66;10392011;28;2439;-76
2021/04/06 22:38:36;;;;;;;;;;;0.30;99.90;;;-0.73;81.99;95069.53;10409317;28;2379;-76
2021/04/06 22:43:39;;;;;;;;;;;0.30;99.90;;;-0.34;81.53;95059.50;10411409;28;2680;-75
2021/04/06 22:48:40;;;;;;;;;;;0.30;99.90;;;-0.22;81.01;95065.66;10409905;28;2450;-75
2021/04/06 22:53:43;;;;;;;;;;;0.50;99.90;;;-0.27;81.27;95062.88;10409976;28;2463;-73
2021/04/06 22:58:45;;;;;;;;;;;0.60;99.90;;;-0.42;81.93;95078.31;10419216;28;2348;-77
2021/04/06 23:03:46;;;;;;;;;;;0.50;99.90;;;-0.64;83.62;95070.03;10411000;28;2415;-74
2021/04/06 23:08:48;;;;;;;;;;;0.40;99.90;;;-0.67;84.13;95068.66;10395606;28;2336;-74
2021/04/06 23:13:51;;;;;;;;;;;0.30;99.90;;;-0.73;84.24;95058.97;10413015;28;2372;-76
2021/04/06 23:18:53;;;;;;;;;;;0.30;99.90;;;-0.63;83.49;95069.03;10414642;28;2450;-75
2021/04/06 23:23:55;;;;;;;;;;;0.30;99.90;;;-0.58;83.18;95055.94;10410312;28;2328;-75
2021/04/06 23:28:56;;;;;;;;;;;1.40;99.90;;;-0.83;82.47;95048.13;10409217;28;2252;-77
2021/04/06 23:33:58;;;;;;;;;;;0.10;99.90;;;-0.73;83.45;95047.59;10409078;28;2241;-80